Caprice — FAE2242 — position and weather

sailwx.info

Track history (hours):
 
Tides and Currents Weather Stations Pressure Air Temp Water Temp Dewpoint Dewpoint Depression Visibility Wind Speed Wind Dir Waves Ship Positions

Caprice

Last reported at 2017-Aug-24 16:42 UTC. Time now 2017-Sep-26 22:04 UTC.
Position N 47°35' W 003°02'.
Warning: this ship's position is 33 days out of date.

Length 9 m.

Type: Sailing vessel. MMSI: 227455250.

Date/timePositionNaut miles runAvg speedWind from/ knotsBaromVisibWave heightAir tempDewpointWater temp
2017-Aug-24 16:42N 47°35' W 003°02'0 0.0
2017-Aug-22 16:03N 47°35' W 003°02'0 0.0
2017-Aug-22 15:57N 47°35' W 003°02'1 3.1
2017-Aug-22 15:30N 47°34' W 003°01'1 2.5
2017-Aug-22 15:00N 47°33' W 003°01'2 3.7
2017-Aug-22 14:30N 47°31' W 003°03'2 4.6
2017-Aug-22 14:00N 47°31' W 002°60'1 2.1
2017-Aug-22 13:30N 47°30' W 002°59'1 1.5
2017-Aug-22 12:59N 47°30' W 002°60'1 1.1
2017-Aug-22 12:28N 47°31' W 003°00'0 1.0
2017-Aug-22 12:00N 47°31' W 002°60'1 3.0
2017-Aug-22 11:30N 47°33' W 003°00'1 1.9
2017-Aug-22 11:00N 47°34' W 003°01'2 3.3
2017-Aug-22 10:25N 47°35' W 003°02'0 0.0
2017-Aug-22 08:48N 47°35' W 003°02'0 0.0
2017-Aug-22 02:11N 47°35' W 003°02'0 0.0
2017-Aug-22 01:53N 47°35' W 003°02'0 0.0
2017-Aug-21 15:44N 47°35' W 003°02'0 0.0
2017-Aug-21 15:28N 47°35' W 003°02'0 0.0
2017-Aug-21 14:52N 47°35' W 003°02'0 0.0
2017-Aug-21 14:25N 47°35' W 003°02'0 0.0
2017-Aug-21 13:58N 47°35' W 003°02'0 0.0
2017-Aug-21 13:28N 47°35' W 003°02'0 0.0
2017-Aug-21 12:49N 47°35' W 003°02'0 0.0
2017-Aug-21 12:28N 47°35' W 003°02'0 0.0
2017-Aug-21 11:58N 47°35' W 003°02'0 0.0
2017-Aug-21 11:28N 47°35' W 003°02'0 0.0
2017-Aug-21 10:40N 47°35' W 003°02'0 0.0
2017-Aug-21 10:19N 47°35' W 003°02'0 0.0
2017-Aug-21 00:04N 47°35' W 003°02'0 0.0
2017-Aug-20 23:58N 47°35' W 003°02'0 0.0
2017-Aug-20 17:49N 47°35' W 003°02'0 0.0
2017-Aug-20 17:27N 47°35' W 003°02'0 0.0
2017-Aug-20 16:51N 47°35' W 003°02'0 0.0
2017-Aug-20 16:21N 47°35' W 003°02'0 0.0
2017-Aug-20 15:57N 47°35' W 003°02'0 0.0
2017-Aug-20 15:27N 47°35' W 003°02'0 0.0
2017-Aug-20 14:51N 47°35' W 003°02'0 0.0
2017-Aug-20 14:30N 47°35' W 003°02'0 0.0
2017-Aug-20 14:00N 47°35' W 003°02'0 0.0
2017-Aug-20 13:30N 47°35' W 003°02'0 0.0
2017-Aug-20 12:57N 47°35' W 003°02'0 0.0
2017-Aug-20 12:27N 47°35' W 003°02'0 0.0
2017-Aug-20 11:48N 47°35' W 003°02'0 0.0
2017-Aug-19 16:03N 47°35' W 003°02'0 4.1
2017-Aug-19 15:58N 47°35' W 003°01'2 4.4
2017-Aug-19 15:30N 47°33' W 003°01'2 4.5
2017-Aug-19 15:00N 47°32' W 003°04'3 3.3
2017-Aug-19 13:59N 47°29' W 003°06'0 0.0
2017-Aug-19 13:29N 47°29' W 003°06'0 0.0
2017-Aug-19 12:59N 47°29' W 003°06'0 0.4
2017-Aug-19 12:30N 47°30' W 003°06'1 2.2
2017-Aug-19 12:00N 47°30' W 003°05'2 4.8
2017-Aug-19 11:30N 47°31' W 003°02'3 6.0
2017-Aug-19 11:00N 47°34' W 003°01'1 0.2
2017-Aug-19 05:00N 47°35' W 003°02'0 0.0
2017-Aug-19 04:12N 47°35' W 003°02'0 0.0
2017-Aug-19 03:48N 47°35' W 003°02'0 0.0
2017-Aug-19 03:30N 47°35' W 003°02'0 0.0
2017-Aug-19 02:33N 47°35' W 003°02'0 0.0
2017-Aug-19 02:24N 47°35' W 003°02'0 0.0
2017-Aug-19 01:36N 47°35' W 003°02'0 0.0
2017-Aug-19 01:27N 47°35' W 003°02'0 0.0
2017-Aug-19 00:57N 47°35' W 003°02'0 0.0
2017-Aug-19 00:30N 47°35' W 003°02'0 0.0
2017-Aug-18 23:06N 47°35' W 003°02'0 0.0
2017-Aug-18 15:39N 47°35' W 003°02'0 0.6
2017-Aug-18 15:19N 47°35' W 003°01'1 1.7
2017-Aug-18 15:00N 47°35' W 003°01'2 4.9
2017-Aug-18 14:30N 47°33' W 002°59'1 1.4
2017-Aug-18 13:30N 47°32' W 003°01'2 4.2
2017-Aug-18 13:00N 47°34' W 003°01'1 2.5
2017-Aug-18 12:30N 47°33' W 003°01'  
2017-Aug-15 00:28N 47°35' W 003°02'0 0.0
2017-Aug-14 18:18N 47°35' W 003°01'2 5.0
2017-Aug-14 18:00N 47°34' W 003°01'2 3.8
2017-Aug-14 17:30N 47°32' W 003°01'3 5.6
2017-Aug-14 17:00N 47°29' W 003°02'  
Track history (hours):
 
Tides and Currents Weather Stations Pressure Air Temp Water Temp Dewpoint Dewpoint Depression Visibility Wind Speed Wind Dir Waves Ship Positions

Caprice

Last reported at 2017-Aug-24 16:42 UTC. Time now 2017-Sep-26 22:04 UTC.
Position N 47°35' W 003°02'.
Warning: this ship's position is 33 days out of date.

Length 9 m.

Type: Sailing vessel. MMSI: 227455250.

Date/timePositionNaut miles runAvg speedWind from/ knotsBaromVisibWave heightAir tempDewpointWater temp
2017-Aug-24 16:42N 47°35' W 003°02'0 0.0
2017-Aug-22 16:03N 47°35' W 003°02'0 0.0
2017-Aug-22 15:57N 47°35' W 003°02'1 3.1
2017-Aug-22 15:30N 47°34' W 003°01'1 2.5
2017-Aug-22 15:00N 47°33' W 003°01'2 3.7
2017-Aug-22 14:30N 47°31' W 003°03'2 4.6
2017-Aug-22 14:00N 47°31' W 002°60'1 2.1
2017-Aug-22 13:30N 47°30' W 002°59'1 1.5
2017-Aug-22 12:59N 47°30' W 002°60'1 1.1
2017-Aug-22 12:28N 47°31' W 003°00'0 1.0
2017-Aug-22 12:00N 47°31' W 002°60'1 3.0
2017-Aug-22 11:30N 47°33' W 003°00'1 1.9
2017-Aug-22 11:00N 47°34' W 003°01'2 3.3
2017-Aug-22 10:25N 47°35' W 003°02'0 0.0
2017-Aug-22 08:48N 47°35' W 003°02'0 0.0
2017-Aug-22 02:11N 47°35' W 003°02'0 0.0
2017-Aug-22 01:53N 47°35' W 003°02'0 0.0
2017-Aug-21 15:44N 47°35' W 003°02'0 0.0
2017-Aug-21 15:28N 47°35' W 003°02'0 0.0
2017-Aug-21 14:52N 47°35' W 003°02'0 0.0
2017-Aug-21 14:25N 47°35' W 003°02'0 0.0
2017-Aug-21 13:58N 47°35' W 003°02'0 0.0
2017-Aug-21 13:28N 47°35' W 003°02'0 0.0
2017-Aug-21 12:49N 47°35' W 003°02'0 0.0
2017-Aug-21 12:28N 47°35' W 003°02'0 0.0
2017-Aug-21 11:58N 47°35' W 003°02'0 0.0
2017-Aug-21 11:28N 47°35' W 003°02'0 0.0
2017-Aug-21 10:40N 47°35' W 003°02'0 0.0
2017-Aug-21 10:19N 47°35' W 003°02'0 0.0
2017-Aug-21 00:04N 47°35' W 003°02'0 0.0
2017-Aug-20 23:58N 47°35' W 003°02'0 0.0
2017-Aug-20 17:49N 47°35' W 003°02'0 0.0
2017-Aug-20 17:27N 47°35' W 003°02'0 0.0
2017-Aug-20 16:51N 47°35' W 003°02'0 0.0
2017-Aug-20 16:21N 47°35' W 003°02'0 0.0
2017-Aug-20 15:57N 47°35' W 003°02'0 0.0
2017-Aug-20 15:27N 47°35' W 003°02'0 0.0
2017-Aug-20 14:51N 47°35' W 003°02'0 0.0
2017-Aug-20 14:30N 47°35' W 003°02'0 0.0
2017-Aug-20 14:00N 47°35' W 003°02'0 0.0
2017-Aug-20 13:30N 47°35' W 003°02'0 0.0
2017-Aug-20 12:57N 47°35' W 003°02'0 0.0
2017-Aug-20 12:27N 47°35' W 003°02'0 0.0
2017-Aug-20 11:48N 47°35' W 003°02'0 0.0
2017-Aug-19 16:03N 47°35' W 003°02'0 4.1
2017-Aug-19 15:58N 47°35' W 003°01'2 4.4
2017-Aug-19 15:30N 47°33' W 003°01'2 4.5
2017-Aug-19 15:00N 47°32' W 003°04'3 3.3
2017-Aug-19 13:59N 47°29' W 003°06'0 0.0
2017-Aug-19 13:29N 47°29' W 003°06'0 0.0
2017-Aug-19 12:59N 47°29' W 003°06'0 0.4
2017-Aug-19 12:30N 47°30' W 003°06'1 2.2
2017-Aug-19 12:00N 47°30' W 003°05'2 4.8
2017-Aug-19 11:30N 47°31' W 003°02'3 6.0
2017-Aug-19 11:00N 47°34' W 003°01'1 0.2
2017-Aug-19 05:00N 47°35' W 003°02'0 0.0
2017-Aug-19 04:12N 47°35' W 003°02'0 0.0
2017-Aug-19 03:48N 47°35' W 003°02'0 0.0
2017-Aug-19 03:30N 47°35' W 003°02'0 0.0
2017-Aug-19 02:33N 47°35' W 003°02'0 0.0
2017-Aug-19 02:24N 47°35' W 003°02'0 0.0
2017-Aug-19 01:36N 47°35' W 003°02'0 0.0
2017-Aug-19 01:27N 47°35' W 003°02'0 0.0
2017-Aug-19 00:57N 47°35' W 003°02'0 0.0
2017-Aug-19 00:30N 47°35' W 003°02'0 0.0
2017-Aug-18 23:06N 47°35' W 003°02'0 0.0
2017-Aug-18 15:39N 47°35' W 003°02'0 0.6
2017-Aug-18 15:19N 47°35' W 003°01'1 1.7
2017-Aug-18 15:00N 47°35' W 003°01'2 4.9
2017-Aug-18 14:30N 47°33' W 002°59'1 1.4
2017-Aug-18 13:30N 47°32' W 003°01'2 4.2
2017-Aug-18 13:00N 47°34' W 003°01'1 2.5
2017-Aug-18 12:30N 47°33' W 003°01'  
2017-Aug-15 00:28N 47°35' W 003°02'0 0.0
2017-Aug-14 18:18N 47°35' W 003°01'2 5.0
2017-Aug-14 18:00N 47°34' W 003°01'2 3.8
2017-Aug-14 17:30N 47°32' W 003°01'3 5.6
2017-Aug-14 17:00N 47°29' W 003°02'  

Dump ship's entire track history